createdAt,value
2016-01-28T00:00:05.072Z,10.3
2016-01-28T00:01:06.075Z,10.3
2016-01-28T00:02:07.312Z,10.3
2016-01-28T00:03:08.315Z,10.3
2016-01-28T00:04:09.302Z,10.3
2016-01-28T00:05:10.366Z,10.3
2016-01-28T00:06:12.073Z,10.3
2016-01-28T00:07:13.310Z,10.3
2016-01-28T00:08:14.562Z,10.3
2016-01-28T00:09:15.816Z,10.2
2016-01-28T00:10:17.068Z,10.3
2016-01-28T00:11:18.321Z,10.3
2016-01-28T00:12:19.308Z,10.2
2016-01-28T00:13:20.310Z,10.2
2016-01-28T00:14:21.563Z,10.2
2016-01-28T00:15:22.862Z,10.2
2016-01-28T00:16:24.580Z,10.2
2016-01-28T00:17:25.567Z,10.2
2016-01-28T00:18:26.820Z,10.2
2016-01-28T00:19:28.076Z,10.2
2016-01-28T00:20:29.063Z,10.2
2016-01-28T00:21:30.315Z,10.2
2016-01-28T00:22:31.585Z,10.2
2016-01-28T00:23:32.837Z,10.2
2016-01-28T00:24:34.090Z,10.2
2016-01-28T00:25:35.390Z,10.2
2016-01-28T00:26:37.095Z,10.2
2016-01-28T00:27:38.348Z,10.2
2016-01-28T00:28:39.588Z,10.2
2016-01-28T00:29:40.841Z,10.2
2016-01-28T00:30:42.110Z,10.2
2016-01-28T00:31:43.363Z,10.2
2016-01-28T00:32:44.618Z,10.2
2016-01-28T00:33:45.901Z,10.1
2016-01-28T00:34:47.107Z,10.1
2016-01-28T00:35:48.407Z,10.2
2016-01-28T00:36:50.132Z,10.1
2016-01-28T00:37:51.368Z,10.2
2016-01-28T00:38:52.621Z,10.1
2016-01-28T00:39:53.874Z,10.1
2016-01-28T00:40:55.144Z,10.1
2016-01-28T00:41:56.366Z,10.2
2016-01-28T00:42:57.618Z,10.1
2016-01-28T00:43:59.153Z,10.1
2016-01-28T00:45:00.381Z,10.1
2016-01-28T00:46:01.682Z,10.1
2016-01-28T00:47:03.388Z,10.1
2016-01-28T00:48:04.645Z,10.1
2016-01-28T00:49:05.883Z,10.1
2016-01-28T00:50:07.167Z,10.1
2016-01-28T00:51:08.388Z,10.2
2016-01-28T00:52:09.891Z,10.1
2016-01-28T00:53:11.144Z,10.2
2016-01-28T00:54:12.412Z,10.2
2016-01-28T00:55:13.649Z,10.2
2016-01-28T00:56:14.966Z,10.2
2016-01-28T00:57:16.656Z,10.2
2016-01-28T00:58:17.659Z,10.2
2016-01-28T00:59:18.663Z,10.2
2016-01-28T01:00:19.651Z,10.2
2016-01-28T01:01:20.637Z,10.2
2016-01-28T01:02:21.640Z,10.2
2016-01-28T01:03:22.628Z,10.2
2016-01-28T01:04:23.630Z,10.2
2016-01-28T01:05:24.868Z,10.2
2016-01-28T01:06:26.183Z,10.2
2016-01-28T01:07:27.893Z,10.2
2016-01-28T01:08:28.881Z,10.2
2016-01-28T01:09:29.884Z,10.2
2016-01-28T01:10:30.621Z,10.3
2016-01-28T01:11:31.608Z,10.2
2016-01-28T01:12:32.611Z,10.2
2016-01-28T01:13:33.849Z,10.2
2016-01-28T01:14:35.105Z,10.2
2016-01-28T01:15:36.373Z,10.2
2016-01-28T01:16:37.666Z,10.2
2016-01-28T01:17:39.372Z,10.2
2016-01-28T01:18:40.643Z,10.2
2016-01-28T01:19:41.883Z,10.2
2016-01-28T01:20:43.119Z,10.2
2016-01-28T01:21:44.372Z,10.2
2016-01-28T01:22:45.625Z,10.2
2016-01-28T01:23:46.627Z,10.2
2016-01-28T01:24:47.614Z,10.2
2016-01-28T01:25:48.632Z,10.2
2016-01-28T01:26:49.916Z,10.2
2016-01-28T01:27:51.639Z,10.2
2016-01-28T01:28:52.876Z,10.2
2016-01-28T01:29:53.868Z,10.2
2016-01-28T01:30:55.120Z,10.2
2016-01-28T01:31:56.373Z,10.2
2016-01-28T01:32:57.625Z,10.2
2016-01-28T01:33:58.878Z,10.2
2016-01-28T01:35:00.131Z,10.2
2016-01-28T01:36:01.633Z,10.2
2016-01-28T01:37:02.949Z,10.2
2016-01-28T01:38:04.655Z,10.2
2016-01-28T01:39:05.908Z,10.2
2016-01-28T01:40:06.897Z,10.3
2016-01-28T01:41:08.149Z,10.2
2016-01-28T01:42:09.418Z,10.2
2016-01-28T01:43:10.393Z,10.2
2016-01-28T01:44:11.645Z,10.2
2016-01-28T01:45:12.898Z,10.2
2016-01-28T01:46:14.416Z,10.2
2016-01-28T01:47:15.965Z,10.2
2016-01-28T01:48:17.681Z,10.2
2016-01-28T01:49:18.935Z,10.2
2016-01-28T01:50:20.188Z,10.2
2016-01-28T01:51:21.426Z,10.2
2016-01-28T01:52:22.679Z,10.3
2016-01-28T01:53:23.964Z,10.2
2016-01-28T01:54:25.185Z,10.3
2016-01-28T01:55:26.189Z,10.3
2016-01-28T01:56:27.474Z,10.3
2016-01-28T01:57:28.477Z,10.3
2016-01-28T01:58:30.184Z,10.3
2016-01-28T01:59:31.437Z,10.3
2016-01-28T02:00:32.690Z,10.3
2016-01-28T02:01:34.068Z,10.3
2016-01-28T02:02:35.306Z,10.3
2016-01-28T02:03:36.183Z,10.3
2016-01-28T02:04:36.936Z,10.3
2016-01-28T02:05:37.939Z,10.3
2016-01-28T02:06:38.911Z,10.3
2016-01-28T02:07:39.976Z,10.3
2016-01-28T02:08:41.681Z,10.3
2016-01-28T02:09:42.419Z,10.3
2016-01-28T02:10:43.159Z,10.3
2016-01-28T02:11:44.147Z,10.3
2016-01-28T02:12:45.150Z,10.3
2016-01-28T02:13:46.402Z,10.3
2016-01-28T02:14:47.655Z,10.3
2016-01-28T02:15:48.908Z,10.3
2016-01-28T02:16:50.458Z,10.3
2016-01-28T02:17:51.995Z,10.3
2016-01-28T02:18:53.700Z,10.3
2016-01-28T02:19:55.459Z,10.3
2016-01-28T02:20:57.227Z,10.3
2016-01-28T02:21:58.982Z,10.3
2016-01-28T02:23:01.001Z,10.3
2016-01-28T02:24:03.051Z,10.3
2016-01-28T02:25:05.057Z,10.3
2016-01-28T02:26:07.325Z,10.3
2016-01-28T02:27:09.594Z,10.3
2016-01-28T02:28:11.924Z,10.3
2016-01-28T02:29:13.631Z,10.3
2016-01-28T02:30:12.320Z,10.3
2016-01-28T02:31:11.027Z,10.3
2016-01-28T02:32:09.701Z,10.3
2016-01-28T02:33:08.378Z,10.3
2016-01-28T02:34:07.084Z,10.3
2016-01-28T02:35:05.509Z,10.3
2016-01-28T02:36:03.933Z,10.3
2016-01-28T02:37:02.374Z,10.3
2016-01-28T02:38:01.111Z,10.3
2016-01-28T02:39:02.817Z,10.3
2016-01-28T02:40:01.508Z,10.3
2016-01-28T02:41:00.198Z,10.2
2016-01-28T02:41:58.889Z,10.3
2016-01-28T02:42:57.829Z,10.3
2016-01-28T02:43:56.519Z,10.3
2016-01-28T02:44:55.211Z,10.3
2016-01-28T02:45:53.902Z,10.3
2016-01-28T02:46:52.575Z,10.3
2016-01-28T02:47:51.594Z,10.3
2016-01-28T02:48:53.300Z,10.3
2016-01-28T02:49:51.975Z,10.3
2016-01-28T02:50:50.418Z,10.3
2016-01-28T02:51:48.841Z,10.3
2016-01-28T02:52:47.283Z,10.3
2016-01-28T02:53:45.958Z,10.3
2016-01-28T02:54:44.647Z,10.3
2016-01-28T02:55:43.354Z,10.3
2016-01-28T02:56:42.026Z,10.3
2016-01-28T02:57:40.781Z,10.4
2016-01-28T02:58:42.487Z,10.4
2016-01-28T02:59:41.178Z,10.4
2016-01-28T03:00:39.867Z,10.4
2016-01-28T03:01:38.543Z,10.4
2016-01-28T03:02:37.234Z,10.5
2016-01-28T03:03:35.680Z,10.5
2016-01-28T03:04:34.120Z,10.5
2016-01-28T03:05:32.529Z,10.5
2016-01-28T03:06:31.218Z,10.5
2016-01-28T03:07:29.987Z,10.5
2016-01-28T03:08:31.677Z,10.5
2016-01-28T03:09:30.368Z,10.5
2016-01-28T03:10:29.074Z,10.5
2016-01-28T03:11:27.748Z,10.5
2016-01-28T03:12:26.470Z,10.5
2016-01-28T03:13:25.379Z,10.5
2016-01-28T03:14:24.054Z,10.5
2016-01-28T03:15:22.759Z,10.6
2016-01-28T03:16:21.434Z,10.6
2016-01-28T03:17:20.182Z,10.6
2016-01-28T03:18:21.888Z,10.6
2016-01-28T03:19:20.582Z,10.7
2016-01-28T03:20:19.256Z,10.7
2016-01-28T03:21:17.982Z,10.7
2016-01-28T03:22:16.657Z,10.7
2016-01-28T03:23:15.333Z,10.7
2016-01-28T03:24:14.039Z,10.7
2016-01-28T03:25:12.714Z,10.7
2016-01-28T03:26:11.387Z,10.7
2016-01-28T03:27:10.140Z,10.7
2016-01-28T03:28:11.831Z,10.7
2016-01-28T03:29:10.788Z,10.7
2016-01-28T03:30:09.494Z,10.7
2016-01-28T03:31:08.418Z,10.7
2016-01-28T03:32:07.364Z,10.7
2016-01-28T03:33:06.305Z,10.7
2016-01-28T03:34:05.244Z,10.7
2016-01-28T03:35:04.201Z,10.7
2016-01-28T03:36:03.392Z,10.7
2016-01-28T03:37:02.644Z,10.7
2016-01-28T03:38:04.366Z,10.7
2016-01-28T03:39:03.556Z,10.7
2016-01-28T03:40:02.749Z,10.7
2016-01-28T03:41:01.971Z,10.7
2016-01-28T03:42:01.146Z,10.7
2016-01-28T03:43:00.351Z,10.7
2016-01-28T03:43:59.559Z,10.7
2016-01-28T03:44:58.749Z,10.7
2016-01-28T03:45:57.954Z,10.7
2016-01-28T03:46:57.207Z,10.7
2016-01-28T03:47:58.914Z,10.7
2016-01-28T03:48:58.152Z,10.7
2016-01-28T03:49:57.311Z,10.7
2016-01-28T03:50:56.516Z,10.7
2016-01-28T03:51:55.718Z,10.7
2016-01-28T03:52:54.939Z,10.7
2016-01-28T03:53:54.115Z,10.7
2016-01-28T03:54:53.321Z,10.7
2016-01-28T03:55:52.512Z,10.7
2016-01-28T03:56:51.765Z,10.7
2016-01-28T03:57:53.472Z,10.7
2016-01-28T03:58:52.818Z,10.7
2016-01-28T03:59:51.883Z,10.7
2016-01-28T04:00:51.073Z,10.7
2016-01-28T04:01:50.279Z,10.7
2016-01-28T04:02:49.470Z,10.7
2016-01-28T04:03:48.426Z,10.7
2016-01-28T04:04:47.616Z,10.7
2016-01-28T04:05:46.837Z,10.7
2016-01-28T04:06:46.074Z,10.7
2016-01-28T04:07:47.780Z,10.7
2016-01-28T04:08:46.720Z,10.7
2016-01-28T04:09:45.925Z,10.7
2016-01-28T04:10:45.132Z,10.7
2016-01-28T04:11:44.322Z,10.7
2016-01-28T04:12:43.559Z,10.7
2016-01-28T04:13:42.716Z,10.7
2016-01-28T04:14:41.923Z,10.7
2016-01-28T04:15:41.129Z,10.7
2016-01-28T04:16:40.381Z,10.7
2016-01-28T04:17:42.087Z,10.7
2016-01-28T04:18:41.293Z,10.7
2016-01-28T04:19:40.484Z,10.7
2016-01-28T04:20:39.689Z,10.7
2016-01-28T04:21:38.895Z,10.7
2016-01-28T04:22:38.085Z,10.7
2016-01-28T04:23:37.301Z,10.7
2016-01-28T04:24:36.491Z,10.7
2016-01-28T04:25:35.697Z,10.7
2016-01-28T04:26:34.950Z,10.7
2016-01-28T04:27:36.655Z,10.7
2016-01-28T04:28:35.861Z,10.7
2016-01-28T04:29:35.052Z,10.7
2016-01-28T04:30:34.366Z,10.7
2016-01-28T04:31:33.713Z,10.7
2016-01-28T04:32:33.169Z,10.7
2016-01-28T04:33:32.360Z,10.7
2016-01-28T04:34:31.565Z,10.7
2016-01-28T04:35:30.756Z,10.7
2016-01-28T04:36:30.025Z,10.7
2016-01-28T04:37:31.730Z,10.7
2016-01-28T04:38:30.920Z,10.7
2016-01-28T04:39:30.126Z,10.7
2016-01-28T04:40:29.333Z,10.7
2016-01-28T04:41:28.523Z,10.7
2016-01-28T04:42:27.729Z,10.7
2016-01-28T04:43:27.186Z,10.7
2016-01-28T04:44:26.641Z,10.7
2016-01-28T04:45:25.832Z,10.7
2016-01-28T04:46:25.101Z,10.7
2016-01-28T04:47:26.807Z,10.7
2016-01-28T04:48:25.997Z,10.7
2016-01-28T04:49:25.203Z,10.7
2016-01-28T04:50:24.658Z,10.7
2016-01-28T04:51:23.850Z,10.7
2016-01-28T04:52:23.056Z,10.8
2016-01-28T04:53:22.261Z,10.7
2016-01-28T04:54:21.452Z,10.7
2016-01-28T04:55:20.645Z,10.7
2016-01-28T04:56:19.914Z,10.7
2016-01-28T04:57:21.620Z,10.7
2016-01-28T04:58:20.841Z,10.7
2016-01-28T04:59:20.036Z,10.7
2016-01-28T05:00:19.211Z,10.7
2016-01-28T05:01:18.166Z,10.8
2016-01-28T05:02:16.841Z,10.8
2016-01-28T05:03:15.532Z,10.8
2016-01-28T05:04:14.472Z,10.8
2016-01-28T05:05:13.678Z,10.7
2016-01-28T05:06:12.947Z,10.8
2016-01-28T05:07:14.639Z,10.7
2016-01-28T05:08:13.845Z,10.7
2016-01-28T05:09:13.301Z,10.7
2016-01-28T05:10:12.758Z,10.7
2016-01-28T05:11:11.949Z,10.7
2016-01-28T05:12:11.154Z,10.7
2016-01-28T05:13:10.360Z,10.8
2016-01-28T05:14:09.569Z,10.8
2016-01-28T05:15:08.759Z,10.8
2016-01-28T05:16:08.012Z,10.8
2016-01-28T05:17:09.718Z,10.8
2016-01-28T05:18:08.926Z,10.8
2016-01-28T05:19:08.366Z,10.7
2016-01-28T05:20:07.822Z,10.8
2016-01-28T05:21:07.059Z,10.8
2016-01-28T05:22:06.485Z,10.8
2016-01-28T05:23:05.672Z,10.8
2016-01-28T05:24:04.868Z,10.8
2016-01-28T05:25:04.062Z,10.8
2016-01-28T05:26:03.310Z,10.8
2016-01-28T05:27:05.005Z,10.8
2016-01-28T05:28:04.452Z,10.8
2016-01-28T05:29:03.639Z,10.8
2016-01-28T05:30:02.842Z,10.8
2016-01-28T05:31:02.294Z,10.8
2016-01-28T05:32:01.745Z,10.8
2016-01-28T05:33:01.199Z,10.8
2016-01-28T05:34:00.685Z,10.8
2016-01-28T05:35:00.123Z,10.8
2016-01-28T05:35:59.878Z,10.8
2016-01-28T05:37:01.582Z,10.8
2016-01-28T05:38:01.306Z,10.7
2016-01-28T05:39:01.277Z,10.8
2016-01-28T05:40:01.232Z,10.7
2016-01-28T05:41:01.468Z,10.7
2016-01-28T05:42:01.689Z,10.7
2016-01-28T05:43:01.912Z,10.7
2016-01-28T05:44:02.399Z,10.7
2016-01-28T05:45:03.137Z,10.7
2016-01-28T05:46:03.935Z,10.6
2016-01-28T05:47:05.630Z,10.6
2016-01-28T05:48:06.882Z,10.5
2016-01-28T05:49:08.385Z,10.5
2016-01-28T05:50:10.153Z,10.5
2016-01-28T05:51:11.909Z,10.5
2016-01-28T05:52:13.928Z,10.4
2016-01-28T05:53:16.228Z,10.4
2016-01-28T05:54:14.636Z,10.4
2016-01-28T05:55:13.329Z,10.3
2016-01-28T05:56:12.082Z,10.3
2016-01-28T05:57:13.802Z,10.3
2016-01-28T05:58:12.727Z,10.2
2016-01-28T05:59:11.933Z,10.2
2016-01-28T06:00:11.124Z,10.2
2016-01-28T06:01:10.313Z,10.1
2016-01-28T06:02:10.036Z,10.1
2016-01-28T06:03:09.758Z,10.1
2016-01-28T06:04:09.485Z,10
2016-01-28T06:05:09.707Z,10
2016-01-28T06:06:09.980Z,10
2016-01-28T06:07:11.670Z,9.9
2016-01-28T06:08:11.908Z,9.8
2016-01-28T06:09:12.113Z,9.8
2016-01-28T06:10:12.351Z,9.7
2016-01-28T06:11:12.572Z,9.6
2016-01-28T06:12:12.794Z,9.6
2016-01-28T06:13:13.015Z,9.5
2016-01-28T06:14:13.241Z,9.5
2016-01-28T06:15:13.478Z,9.5
2016-01-28T06:16:13.762Z,9.4
2016-01-28T06:17:15.468Z,9.3
2016-01-28T06:18:15.440Z,9.3
2016-01-28T06:19:15.661Z,9.3
2016-01-28T06:20:15.898Z,9.3
2016-01-28T06:21:16.120Z,9.2
2016-01-28T06:22:16.345Z,9.2
2016-01-28T06:23:16.573Z,9.2
2016-01-28T06:24:16.796Z,9.1
2016-01-28T06:25:17.033Z,9.1
2016-01-28T06:26:17.318Z,9.1
2016-01-28T06:27:19.023Z,9.1
2016-01-28T06:28:19.260Z,9.1
2016-01-28T06:29:19.483Z,9.1
2016-01-28T06:30:19.704Z,9.1
2016-01-28T06:31:19.940Z,9.1
2016-01-28T06:32:20.162Z,9.1
2016-01-28T06:33:20.399Z,9.1
2016-01-28T06:34:20.871Z,9.1
2016-01-28T06:35:21.373Z,9.1
2016-01-28T06:36:21.907Z,9.1
2016-01-28T06:37:23.614Z,9
2016-01-28T06:38:24.101Z,9.1
2016-01-28T06:39:24.588Z,9.1
2016-01-28T06:40:25.076Z,9.1
2016-01-28T06:41:25.813Z,9.1
2016-01-28T06:42:26.300Z,9.1
2016-01-28T06:43:27.038Z,9.1
2016-01-28T06:44:27.775Z,9.1
2016-01-28T06:45:28.527Z,9.1
2016-01-28T06:46:29.326Z,9.1
2016-01-28T06:47:31.049Z,9.1
2016-01-28T06:48:31.542Z,9
2016-01-28T06:49:32.014Z,9
2016-01-28T06:50:32.501Z,9
2016-01-28T06:51:32.972Z,9
2016-01-28T06:52:33.210Z,9
2016-01-28T06:53:33.434Z,9
2016-01-28T06:54:33.937Z,8.9
2016-01-28T06:55:34.158Z,9
2016-01-28T06:56:34.472Z,9
2016-01-28T06:57:36.148Z,8.9
2016-01-28T06:58:36.369Z,8.9
2016-01-28T06:59:36.090Z,8.9
2016-01-28T07:00:35.562Z,8.9
2016-01-28T07:01:34.767Z,8.9
2016-01-28T07:02:33.977Z,8.9
2016-01-28T07:03:33.183Z,8.9
2016-01-28T07:04:32.139Z,8.9
2016-01-28T07:05:30.829Z,8.9
2016-01-28T07:06:29.832Z,8.9
2016-01-28T07:07:31.539Z,8.8
2016-01-28T07:08:30.229Z,8.8
2016-01-28T07:09:28.918Z,8.8
2016-01-28T07:10:31.204Z,8.7
2016-01-28T07:11:33.488Z,8.7
2016-01-28T07:12:35.756Z,8.7
2016-01-28T07:13:38.043Z,8.7
2016-01-28T07:14:40.062Z,8.7
2016-01-28T07:15:42.081Z,8.7
2016-01-28T07:16:44.177Z,8.7
2016-01-28T07:17:45.915Z,8.7
2016-01-28T07:18:47.667Z,8.7
2016-01-28T07:19:49.419Z,8.7
2016-01-28T07:20:51.188Z,8.7
2016-01-28T07:21:52.957Z,8.6
2016-01-28T07:22:54.757Z,8.6
2016-01-28T07:23:56.510Z,8.6
2016-01-28T07:24:58.291Z,8.6
2016-01-28T07:26:00.047Z,8.6
2016-01-28T07:27:01.862Z,8.6
2016-01-28T07:29:05.355Z,8.6
2016-01-28T07:30:07.125Z,8.6
2016-01-28T07:31:08.892Z,8.6
2016-01-28T07:32:10.926Z,8.5
2016-01-28T07:33:12.945Z,8.5
2016-01-28T07:34:14.715Z,8.5
2016-01-28T07:35:16.498Z,8.5
2016-01-28T07:36:18.251Z,8.5
2016-01-28T07:37:20.082Z,8.5
2016-01-28T07:38:21.788Z,8.5
2016-01-28T07:39:23.322Z,8.5
2016-01-28T07:40:24.824Z,8.5
2016-01-28T07:41:26.328Z,8.4
2016-01-28T07:42:27.581Z,8.4
2016-01-28T07:43:28.849Z,8.5
2016-01-28T07:44:30.102Z,8.4
2016-01-28T07:45:31.386Z,8.4
2016-01-28T07:46:32.623Z,8.4
2016-01-28T07:47:33.954Z,8.4
2016-01-28T07:48:35.660Z,8.4
2016-01-28T07:49:36.896Z,8.4
2016-01-28T07:50:38.165Z,8.4
2016-01-28T07:51:39.418Z,8.4
2016-01-28T07:52:40.672Z,8.3
2016-01-28T07:53:41.932Z,8.3
2016-01-28T07:54:42.936Z,8.3
2016-01-28T07:55:44.204Z,8.3
2016-01-28T07:56:45.459Z,8.4
2016-01-28T07:57:46.775Z,8.4
2016-01-28T07:58:48.496Z,8.4
2016-01-28T07:59:50.249Z,8.3
2016-01-28T08:00:52.034Z,8.3
2016-01-28T08:01:53.661Z,8.3
2016-01-28T08:02:55.055Z,8.3
2016-01-28T08:03:56.573Z,8.3
2016-01-28T08:04:57.829Z,8.3
2016-01-28T08:05:59.207Z,8.3
2016-01-28T08:07:00.350Z,8.3
2016-01-28T08:08:01.650Z,8.3
2016-01-28T08:09:03.372Z,8.3
2016-01-28T08:10:04.890Z,8.3
2016-01-28T08:11:06.161Z,8.4
2016-01-28T08:12:07.431Z,8.3
2016-01-28T08:13:08.417Z,8.3
2016-01-28T08:14:09.169Z,8.3
2016-01-28T08:15:09.892Z,8.3
2016-01-28T08:16:10.894Z,8.3
2016-01-28T08:17:11.897Z,8.4
2016-01-28T08:18:12.950Z,8.3
2016-01-28T08:19:14.687Z,8.4
2016-01-28T08:20:15.675Z,8.3
2016-01-28T08:21:16.709Z,8.3
2016-01-28T08:22:17.435Z,8.4
2016-01-28T08:23:17.671Z,8.4
2016-01-28T08:24:18.160Z,8.4
2016-01-28T08:25:18.650Z,8.3
2016-01-28T08:26:18.886Z,8.4
2016-01-28T08:27:19.123Z,8.4
2016-01-28T08:28:19.408Z,8.3
2016-01-28T08:29:21.115Z,8.3
2016-01-28T08:30:21.352Z,8.3
2016-01-28T08:31:21.588Z,8.3
2016-01-28T08:32:21.561Z,8.3
2016-01-28T08:33:21.783Z,8.3
2016-01-28T08:34:21.504Z,8.3
2016-01-28T08:35:21.225Z,8.3
2016-01-28T08:36:20.963Z,8.3
2016-01-28T08:37:20.403Z,8.3
2016-01-28T08:38:19.936Z,8.3
2016-01-28T08:39:21.705Z,8.2
2016-01-28T08:40:21.411Z,8.2
2016-01-28T08:41:21.103Z,8.2
2016-01-28T08:42:20.824Z,8.2
2016-01-28T08:43:20.531Z,8.1
2016-01-28T08:44:20.251Z,8.2
2016-01-28T08:45:19.978Z,8.1
2016-01-28T08:46:19.699Z,8.1
2016-01-28T08:47:19.421Z,8.1
2016-01-28T08:48:19.205Z,8.1
2016-01-28T08:49:20.913Z,8.1
2016-01-28T08:50:20.637Z,8.1
2016-01-28T08:51:20.358Z,8.1
2016-01-28T08:52:20.080Z,8
2016-01-28T08:53:19.803Z,8
2016-01-28T08:54:19.258Z,8
2016-01-28T08:55:18.730Z,8
2016-01-28T08:56:17.935Z,8
2016-01-28T08:57:17.143Z,8.1
2016-01-28T08:58:16.160Z,8
2016-01-28T08:59:17.866Z,8.1
2016-01-28T09:00:17.077Z,8.1
2016-01-28T09:01:16.282Z,8.1
2016-01-28T09:02:14.972Z,8
2016-01-28T09:03:13.427Z,8
2016-01-28T09:04:15.714Z,8
2016-01-28T09:05:17.982Z,7.9
2016-01-28T09:06:16.672Z,7.9
2016-01-28T09:07:15.378Z,7.8
2016-01-28T09:08:13.882Z,7.8
2016-01-28T09:09:15.587Z,7.7
2016-01-28T09:10:14.278Z,7.7
2016-01-28T09:11:13.233Z,7.7
2016-01-28T09:12:12.194Z,7.7
2016-01-28T09:13:11.133Z,7.7
2016-01-28T09:14:10.340Z,7.7
2016-01-28T09:15:09.562Z,7.7
2016-01-28T09:16:08.769Z,7.9
2016-01-28T09:17:07.753Z,8
2016-01-28T09:18:06.991Z,8
2016-01-28T09:19:08.727Z,8.1
2016-01-28T09:20:11.014Z,8.2
2016-01-28T09:21:13.299Z,8.4
2016-01-28T09:22:15.584Z,8.5
2016-01-28T09:23:17.883Z,8.6
2016-01-28T09:24:19.887Z,8.7
2016-01-28T09:25:21.655Z,8.8
2016-01-28T09:26:23.173Z,8.9
2016-01-28T09:27:24.692Z,8.9
2016-01-28T09:28:26.273Z,9
2016-01-28T09:29:27.979Z,9.2
2016-01-28T09:30:29.498Z,9.2
2016-01-28T09:31:30.236Z,9.4
2016-01-28T09:32:30.989Z,9.5
2016-01-28T09:33:31.444Z,9.7
2016-01-28T09:34:31.697Z,9.8
2016-01-28T09:35:31.450Z,10.1
2016-01-28T09:36:30.389Z,10.5
2016-01-28T09:37:29.095Z,10.7
2016-01-28T09:38:30.942Z,10.9
2016-01-28T09:39:32.648Z,11.1
2016-01-28T09:40:33.885Z,11.5
2016-01-28T09:41:35.142Z,12
2016-01-28T09:42:35.363Z,12.5
2016-01-28T09:43:34.834Z,12.9
2016-01-28T09:44:33.509Z,13.5
2016-01-28T09:45:31.982Z,14.4
2016-01-28T09:46:33.202Z,15.7
2016-01-28T09:47:33.190Z,17
2016-01-28T09:48:35.255Z,18.2
2016-01-28T09:49:36.981Z,18.7
2016-01-28T09:50:36.447Z,18.8
2016-01-28T09:51:34.871Z,18.3
2016-01-28T09:52:33.812Z,18.2
2016-01-28T09:53:32.752Z,18.1
2016-01-28T09:54:31.394Z,17.4
2016-01-28T09:55:30.852Z,16.2
2016-01-28T09:56:30.357Z,15.8
2016-01-28T09:57:31.302Z,15.1
2016-01-28T09:58:33.352Z,15.7
2016-01-28T09:59:35.041Z,15.4
2016-01-28T10:00:37.342Z,15
2016-01-28T10:01:35.750Z,15.1
2016-01-28T10:02:34.175Z,14.7
2016-01-28T10:03:35.678Z,13.9
2016-01-28T10:04:34.201Z,13.7
2016-01-28T10:05:33.313Z,13.6
2016-01-28T10:06:33.268Z,14
2016-01-28T10:07:32.426Z,14.4
2016-01-28T10:08:31.438Z,14.2
2016-01-28T10:09:33.129Z,14.7
2016-01-28T10:10:32.038Z,15.1
2016-01-28T10:11:34.306Z,15.3
2016-01-28T10:12:35.282Z,15.6
2016-01-28T10:13:36.519Z,16.4
2016-01-28T10:14:37.005Z,15.8
2016-01-28T10:15:36.211Z,15
2016-01-28T10:16:36.654Z,14.6
2016-01-28T10:17:38.141Z,14.3
2016-01-28T10:18:40.222Z,13.8
2016-01-28T10:19:41.974Z,13.7
2016-01-28T10:20:40.291Z,13.5
2016-01-28T10:21:42.590Z,12.9
2016-01-28T10:22:41.273Z,12.9
2016-01-28T10:23:40.181Z,12.4
2016-01-28T10:24:39.123Z,12.6
2016-01-28T10:25:38.313Z,12.6
2016-01-28T10:26:36.723Z,12.1
2016-01-28T10:27:35.647Z,11.7
2016-01-28T10:28:35.168Z,12.1
2016-01-28T10:29:36.874Z,12.1
2016-01-28T10:30:35.815Z,11.6
2016-01-28T10:31:34.739Z,11.8
2016-01-28T10:32:34.680Z,11.5
2016-01-28T10:33:34.417Z,11.4
2016-01-28T10:34:34.623Z,11.9
2016-01-28T10:35:34.563Z,11.8
2016-01-28T10:36:34.004Z,12
2016-01-28T10:37:33.210Z,12.5
2016-01-28T10:38:32.180Z,13
2016-01-28T10:40:35.625Z,13
2016-01-28T10:41:37.642Z,13.1
2016-01-28T10:42:38.724Z,12.5
2016-01-28T10:43:40.898Z,12.6
2016-01-28T10:44:39.573Z,12.7
2016-01-28T10:45:38.014Z,12.8
2016-01-28T10:46:40.017Z,12.6
2016-01-28T10:47:38.676Z,12.5
2016-01-28T10:48:41.037Z,12.9
2016-01-28T10:49:42.728Z,13.7
2016-01-28T10:50:43.934Z,14.4
2016-01-28T10:51:43.912Z,14.9
2016-01-28T10:52:43.102Z,15.1
2016-01-28T10:53:42.276Z,15.5
2016-01-28T10:54:41.217Z,16
2016-01-28T10:55:39.626Z,16.4
2016-01-28T10:56:41.644Z,16.6
2016-01-28T10:57:43.117Z,16.9
2016-01-28T10:58:44.417Z,16.8
2016-01-28T10:59:46.095Z,16.8
2016-01-28T11:00:47.222Z,16.7
2016-01-28T11:01:47.819Z,16
2016-01-28T11:02:48.790Z,15.1
2016-01-28T11:03:50.059Z,14
2016-01-28T11:04:48.437Z,13.2
2016-01-28T11:05:48.392Z,12.6
2016-01-28T11:06:48.865Z,12.1
2016-01-28T11:07:49.851Z,11.7
2016-01-28T11:08:51.386Z,11.4
2016-01-28T11:09:53.093Z,11.1
2016-01-28T11:10:51.766Z,10.9
2016-01-28T11:11:50.441Z,10.7
2016-01-28T11:12:49.647Z,10.5
2016-01-28T11:13:49.089Z,10.3
2016-01-28T11:14:48.544Z,10.2
2016-01-28T11:15:48.499Z,10.1
2016-01-28T11:16:48.722Z,10
2016-01-28T11:17:48.911Z,9.8
2016-01-28T11:18:48.930Z,9.6
2016-01-28T11:19:50.620Z,9.4
2016-01-28T11:20:51.613Z,9.3
2016-01-28T11:21:52.849Z,9.2
2016-01-28T11:22:53.845Z,9.1
2016-01-28T11:23:54.583Z,9
2016-01-28T11:24:55.820Z,8.9
2016-01-28T11:25:57.323Z,8.9
2016-01-28T11:26:58.809Z,8.9
2016-01-28T11:28:00.328Z,8.8
2016-01-28T11:29:01.885Z,8.8
2016-01-28T11:30:03.574Z,8.7
2016-01-28T11:31:05.344Z,8.8
2016-01-28T11:32:07.086Z,8.7
2016-01-28T11:33:09.370Z,8.6
2016-01-28T11:34:11.388Z,8.5
2016-01-28T11:35:13.407Z,8.5
2016-01-28T11:36:15.662Z,8.5
2016-01-28T11:37:17.698Z,8.5
2016-01-28T11:38:19.950Z,8.5
2016-01-28T11:39:22.281Z,8.5
2016-01-28T11:40:23.990Z,8.4
2016-01-28T11:41:22.429Z,8.4
2016-01-28T11:42:20.854Z,8.4
2016-01-28T11:43:19.514Z,8.3
2016-01-28T11:44:18.471Z,8.2
2016-01-28T11:45:17.662Z,8.2
2016-01-28T11:46:16.865Z,8.2
2016-01-28T11:47:16.055Z,8.1
2016-01-28T11:48:14.998Z,8.1
2016-01-28T11:49:14.516Z,8.1
2016-01-28T11:50:16.223Z,8
2016-01-28T11:51:15.678Z,8
2016-01-28T11:52:14.868Z,8
2016-01-28T11:54:13.772Z,7.9
2016-01-28T11:55:13.494Z,8
2016-01-28T11:56:12.938Z,7.9
2016-01-28T11:57:12.394Z,7.9
2016-01-28T11:58:12.100Z,7.9
2016-01-28T11:59:11.618Z,7.9
2016-01-28T12:00:13.341Z,7.8
2016-01-28T12:01:13.047Z,7.9
2016-01-28T12:02:12.519Z,7.8
2016-01-28T12:03:11.708Z,7.8
2016-01-28T12:04:10.903Z,7.8
2016-01-28T12:05:10.108Z,7.8
2016-01-28T12:06:09.314Z,7.8
2016-01-28T12:07:08.770Z,7.8
2016-01-28T12:08:08.226Z,7.7
2016-01-28T12:09:07.760Z,7.7
2016-01-28T12:10:09.451Z,7.7
2016-01-28T12:11:09.423Z,7.7
2016-01-28T12:12:09.394Z,7.7
2016-01-28T12:13:09.368Z,7.7
2016-01-28T12:14:09.090Z,7.7
2016-01-28T12:15:09.062Z,7.7
2016-01-28T12:16:09.033Z,7.7
2016-01-28T12:17:09.255Z,7.7
2016-01-28T12:18:09.741Z,7.7
2016-01-28T12:19:10.026Z,7.6
2016-01-28T12:20:11.763Z,7.7
2016-01-28T12:21:12.234Z,7.6
2016-01-28T12:22:12.448Z,7.6
2016-01-28T12:23:12.435Z,7.6
2016-01-28T12:24:12.657Z,7.6
2016-01-28T12:25:12.894Z,7.5
2016-01-28T12:26:13.130Z,7.5
2016-01-28T12:27:13.368Z,7.5
2016-01-28T12:28:13.589Z,7.5
2016-01-28T12:29:13.876Z,7.5
2016-01-28T12:30:15.582Z,7.5
2016-01-28T12:31:15.818Z,7.5
2016-01-28T12:32:16.556Z,7.5
2016-01-28T12:33:17.060Z,7.5
2016-01-28T12:34:17.797Z,7.5
2016-01-28T12:35:18.550Z,7.5
2016-01-28T12:36:19.552Z,7.5
2016-01-28T12:37:20.810Z,7.5
2016-01-28T12:38:21.813Z,7.5
2016-01-28T12:39:22.878Z,7.5
2016-01-28T12:40:24.568Z,7.5
2016-01-28T12:41:25.573Z,7.5
2016-01-28T12:42:26.576Z,7.5
2016-01-28T12:44:28.566Z,7.5
2016-01-28T12:45:29.053Z,7.5
2016-01-28T12:46:29.540Z,7.5
2016-01-28T12:47:30.027Z,7.6
2016-01-28T12:48:30.282Z,7.6
2016-01-28T12:49:30.551Z,7.6
2016-01-28T12:50:32.272Z,7.6
2016-01-28T12:51:32.238Z,7.7
2016-01-28T12:52:32.224Z,7.7
2016-01-28T12:53:32.181Z,7.7
2016-01-28T12:54:32.417Z,7.7
2016-01-28T12:55:32.388Z,7.7
2016-01-28T12:56:32.112Z,7.7
2016-01-28T12:57:31.583Z,7.8
2016-01-28T12:59:30.556Z,7.8
2016-01-28T13:00:32.280Z,7.9
2016-01-28T13:01:31.736Z,7.9
2016-01-28T13:02:31.191Z,7.9
2016-01-28T13:03:30.164Z,7.9
2016-01-28T13:04:28.838Z,7.9
2016-01-28T13:05:27.794Z,7.9
2016-01-28T13:06:26.516Z,8
2016-01-28T13:07:25.205Z,8
2016-01-28T13:08:27.475Z,8
2016-01-28T13:09:29.305Z,8
2016-01-28T13:10:30.996Z,7.9
2016-01-28T13:11:32.530Z,8
2016-01-28T13:12:33.782Z,7.9
2016-01-28T13:13:35.301Z,8
2016-01-28T13:14:36.819Z,8
2016-01-28T13:15:38.307Z,7.9
2016-01-28T13:16:39.590Z,8
2016-01-28T13:17:40.829Z,7.9
2016-01-28T13:18:42.082Z,7.9
2016-01-28T13:19:43.649Z,7.9
2016-01-28T13:20:45.365Z,7.9
2016-01-28T13:21:46.885Z,7.9
2016-01-28T13:22:48.653Z,7.9
2016-01-28T13:23:50.422Z,7.8
2016-01-28T13:25:53.444Z,7.9
2016-01-28T13:26:55.743Z,7.8
2016-01-28T13:27:54.432Z,7.9
2016-01-28T13:28:53.124Z,7.8
2016-01-28T13:29:51.626Z,7.9
2016-01-28T13:30:53.332Z,7.9
2016-01-28T13:31:51.772Z,7.8
2016-01-28T13:32:54.071Z,7.8
2016-01-28T13:33:52.498Z,7.9
2016-01-28T13:34:50.953Z,7.8
2016-01-28T13:35:53.238Z,7.8
2016-01-28T13:36:55.507Z,7.9
2016-01-28T13:37:57.791Z,7.9
2016-01-28T13:38:59.826Z,7.8
2016-01-28T13:40:01.906Z,7.9
2016-01-28T13:41:03.626Z,7.9
2016-01-28T13:42:05.645Z,7.9
2016-01-28T13:43:07.961Z,8
2016-01-28T13:44:09.979Z,8.1